sensor_id;sensor_type;location;lat;lon;timestamp;P1;durP1;ratioP1;P2;durP2;ratioP2
11171;SDS011;5642;50.830;12.082;2023-07-24T00:00:34;1.95;;;1.50;;
11171;SDS011;5642;50.830;12.082;2023-07-24T00:03:01;1.30;;;1.20;;
11171;SDS011;5642;50.830;12.082;2023-07-24T00:05:28;1.45;;;1.35;;
11171;SDS011;5642;50.830;12.082;2023-07-24T00:07:54;1.40;;;1.20;;
11171;SDS011;5642;50.830;12.082;2023-07-24T00:10:21;1.67;;;1.58;;
11171;SDS011;5642;50.830;12.082;2023-07-24T00:12:48;1.25;;;1.15;;
11171;SDS011;5642;50.830;12.082;2023-07-24T00:15:14;1.38;;;1.27;;
11171;SDS011;5642;50.830;12.082;2023-07-24T00:17:40;1.58;;;1.48;;
11171;SDS011;5642;50.830;12.082;2023-07-24T00:20:06;1.50;;;1.40;;
11171;SDS011;5642;50.830;12.082;2023-07-24T00:22:33;3.90;;;1.20;;
11171;SDS011;5642;50.830;12.082;2023-07-24T00:24:59;1.20;;;1.20;;
11171;SDS011;5642;50.830;12.082;2023-07-24T00:27:26;1.45;;;1.33;;
11171;SDS011;5642;50.830;12.082;2023-07-24T00:29:53;1.42;;;1.33;;
11171;SDS011;5642;50.830;12.082;2023-07-24T00:32:20;1.52;;;1.20;;
11171;SDS011;5642;50.830;12.082;2023-07-24T00:34:46;2.45;;;1.35;;
11171;SDS011;5642;50.830;12.082;2023-07-24T00:37:13;1.40;;;1.30;;
11171;SDS011;5642;50.830;12.082;2023-07-24T00:39:40;1.38;;;1.27;;
11171;SDS011;5642;50.830;12.082;2023-07-24T00:42:07;1.33;;;1.23;;
11171;SDS011;5642;50.830;12.082;2023-07-24T00:44:33;4.20;;;1.48;;
11171;SDS011;5642;50.830;12.082;2023-07-24T00:47:09;1.45;;;1.17;;
11171;SDS011;5642;50.830;12.082;2023-07-24T00:49:35;1.63;;;1.30;;
11171;SDS011;5642;50.830;12.082;2023-07-24T00:52:01;1.30;;;1.20;;
11171;SDS011;5642;50.830;12.082;2023-07-24T00:54:27;1.63;;;1.30;;
11171;SDS011;5642;50.830;12.082;2023-07-24T00:56:56;1.52;;;1.40;;
11171;SDS011;5642;50.830;12.082;2023-07-24T00:59:25;1.50;;;1.40;;
11171;SDS011;5642;50.830;12.082;2023-07-24T01:01:51;1.75;;;1.48;;
11171;SDS011;5642;50.830;12.082;2023-07-24T01:04:18;2.08;;;1.30;;
11171;SDS011;5642;50.830;12.082;2023-07-24T01:06:45;1.42;;;1.33;;
11171;SDS011;5642;50.830;12.082;2023-07-24T01:09:11;1.73;;;1.40;;
11171;SDS011;5642;50.830;12.082;2023-07-24T01:11:45;1.58;;;1.42;;
11171;SDS011;5642;50.830;12.082;2023-07-24T01:16:55;1.45;;;1.13;;
11171;SDS011;5642;50.830;12.082;2023-07-24T01:24:46;1.60;;;1.50;;
11171;SDS011;5642;50.830;12.082;2023-07-24T01:27:23;1.88;;;1.10;;
11171;SDS011;5642;50.830;12.082;2023-07-24T01:29:50;1.65;;;1.40;;
11171;SDS011;5642;50.830;12.082;2023-07-24T01:32:16;1.52;;;1.20;;
11171;SDS011;5642;50.830;12.082;2023-07-24T01:34:43;1.33;;;1.23;;
11171;SDS011;5642;50.830;12.082;2023-07-24T01:37:10;1.40;;;1.30;;
11171;SDS011;5642;50.830;12.082;2023-07-24T01:39:38;1.85;;;1.60;;
11171;SDS011;5642;50.830;12.082;2023-07-24T01:42:09;1.40;;;1.30;;
11171;SDS011;5642;50.830;12.082;2023-07-24T01:44:36;1.75;;;1.50;;
11171;SDS011;5642;50.830;12.082;2023-07-24T01:47:02;1.90;;;1.40;;
11171;SDS011;5642;50.830;12.082;2023-07-24T01:49:29;1.50;;;1.25;;
11171;SDS011;5642;50.830;12.082;2023-07-24T01:51:55;1.40;;;1.30;;
11171;SDS011;5642;50.830;12.082;2023-07-24T01:54:23;1.88;;;1.20;;
11171;SDS011;5642;50.830;12.082;2023-07-24T01:56:50;1.40;;;1.30;;
11171;SDS011;5642;50.830;12.082;2023-07-24T01:59:18;1.60;;;1.50;;
11171;SDS011;5642;50.830;12.082;2023-07-24T02:01:47;1.33;;;1.23;;
11171;SDS011;5642;50.830;12.082;2023-07-24T02:04:14;1.10;;;1.10;;
11171;SDS011;5642;50.830;12.082;2023-07-24T02:06:40;1.23;;;1.15;;
11171;SDS011;5642;50.830;12.082;2023-07-24T02:09:06;1.30;;;1.20;;
11171;SDS011;5642;50.830;12.082;2023-07-24T02:11:33;1.55;;;1.45;;
11171;SDS011;5642;50.830;12.082;2023-07-24T02:13:59;1.33;;;1.23;;
11171;SDS011;5642;50.830;12.082;2023-07-24T02:16:26;1.65;;;1.55;;
11171;SDS011;5642;50.830;12.082;2023-07-24T02:18:53;1.98;;;1.30;;
11171;SDS011;5642;50.830;12.082;2023-07-24T02:21:18;1.30;;;1.20;;
11171;SDS011;5642;50.830;12.082;2023-07-24T02:23:46;1.60;;;1.50;;
11171;SDS011;5642;50.830;12.082;2023-07-24T02:26:12;1.60;;;1.50;;
11171;SDS011;5642;50.830;12.082;2023-07-24T02:28:39;2.78;;;1.50;;
11171;SDS011;5642;50.830;12.082;2023-07-24T02:31:05;1.40;;;1.30;;
11171;SDS011;5642;50.830;12.082;2023-07-24T02:33:31;1.58;;;1.48;;
11171;SDS011;5642;50.830;12.082;2023-07-24T02:35:57;1.60;;;1.50;;
11171;SDS011;5642;50.830;12.082;2023-07-24T02:38:23;1.45;;;1.35;;
11171;SDS011;5642;50.830;12.082;2023-07-24T02:40:49;1.80;;;1.40;;
11171;SDS011;5642;50.830;12.082;2023-07-24T02:43:17;1.70;;;1.60;;
11171;SDS011;5642;50.830;12.082;2023-07-24T02:45:43;1.50;;;1.40;;
11171;SDS011;5642;50.830;12.082;2023-07-24T02:48:12;1.45;;;1.35;;
11171;SDS011;5642;50.830;12.082;2023-07-24T02:50:38;1.60;;;1.50;;
11171;SDS011;5642;50.830;12.082;2023-07-24T02:53:07;1.38;;;1.27;;
11171;SDS011;5642;50.830;12.082;2023-07-24T02:55:33;1.25;;;1.20;;
11171;SDS011;5642;50.830;12.082;2023-07-24T02:58:00;1.50;;;1.40;;
11171;SDS011;5642;50.830;12.082;2023-07-24T03:00:26;1.50;;;1.40;;
11171;SDS011;5642;50.830;12.082;2023-07-24T03:02:53;1.50;;;1.40;;
11171;SDS011;5642;50.830;12.082;2023-07-24T03:05:20;1.50;;;1.40;;
11171;SDS011;5642;50.830;12.082;2023-07-24T03:07:46;1.40;;;1.30;;
11171;SDS011;5642;50.830;12.082;2023-07-24T03:10:12;1.10;;;1.10;;
11171;SDS011;5642;50.830;12.082;2023-07-24T03:12:38;1.60;;;1.50;;
11171;SDS011;5642;50.830;12.082;2023-07-24T03:15:06;1.45;;;1.35;;
11171;SDS011;5642;50.830;12.082;2023-07-24T03:17:34;1.58;;;1.48;;
11171;SDS011;5642;50.830;12.082;2023-07-24T03:20:08;1.90;;;1.75;;
11171;SDS011;5642;50.830;12.082;2023-07-24T03:22:45;1.73;;;1.63;;
11171;SDS011;5642;50.830;12.082;2023-07-24T03:25:11;2.28;;;2.08;;
11171;SDS011;5642;50.830;12.082;2023-07-24T03:27:38;1.85;;;1.75;;
11171;SDS011;5642;50.830;12.082;2023-07-24T03:30:05;2.10;;;1.95;;
11171;SDS011;5642;50.830;12.082;2023-07-24T03:32:32;2.00;;;1.90;;
11171;SDS011;5642;50.830;12.082;2023-07-24T03:34:58;1.67;;;1.58;;
11171;SDS011;5642;50.830;12.082;2023-07-24T03:37:25;2.22;;;2.03;;
11171;SDS011;5642;50.830;12.082;2023-07-24T03:39:51;1.85;;;1.67;;
11171;SDS011;5642;50.830;12.082;2023-07-24T03:42:28;1.70;;;1.58;;
11171;SDS011;5642;50.830;12.082;2023-07-24T03:44:57;1.70;;;1.60;;
11171;SDS011;5642;50.830;12.082;2023-07-24T03:47:24;1.77;;;1.60;;
11171;SDS011;5642;50.830;12.082;2023-07-24T03:49:51;1.70;;;1.60;;
11171;SDS011;5642;50.830;12.082;2023-07-24T03:52:18;2.05;;;1.92;;
11171;SDS011;5642;50.830;12.082;2023-07-24T03:54:45;2.35;;;1.77;;
11171;SDS011;5642;50.830;12.082;2023-07-24T03:57:13;2.10;;;1.80;;
11171;SDS011;5642;50.830;12.082;2023-07-24T03:59:39;4.20;;;1.73;;
11171;SDS011;5642;50.830;12.082;2023-07-24T04:02:18;2.25;;;2.05;;
11171;SDS011;5642;50.830;12.082;2023-07-24T04:04:45;1.90;;;1.80;;
11171;SDS011;5642;50.830;12.082;2023-07-24T04:07:11;2.00;;;1.85;;
11171;SDS011;5642;50.830;12.082;2023-07-24T04:09:37;1.90;;;1.70;;
11171;SDS011;5642;50.830;12.082;2023-07-24T04:12:04;1.70;;;1.60;;
11171;SDS011;5642;50.830;12.082;2023-07-24T04:14:30;2.08;;;1.77;;
11171;SDS011;5642;50.830;12.082;2023-07-24T04:16:56;1.83;;;1.73;;
11171;SDS011;5642;50.830;12.082;2023-07-24T04:19:22;1.85;;;1.65;;
11171;SDS011;5642;50.830;12.082;2023-07-24T04:21:48;1.70;;;1.60;;
11171;SDS011;5642;50.830;12.082;2023-07-24T04:24:17;2.00;;;1.73;;
11171;SDS011;5642;50.830;12.082;2023-07-24T04:26:46;1.65;;;1.55;;
11171;SDS011;5642;50.830;12.082;2023-07-24T04:29:13;2.20;;;2.00;;
11171;SDS011;5642;50.830;12.082;2023-07-24T04:31:40;1.80;;;1.70;;
11171;SDS011;5642;50.830;12.082;2023-07-24T04:34:07;2.08;;;1.88;;
11171;SDS011;5642;50.830;12.082;2023-07-24T04:36:33;2.08;;;1.85;;
11171;SDS011;5642;50.830;12.082;2023-07-24T04:38:59;3.15;;;1.80;;
11171;SDS011;5642;50.830;12.082;2023-07-24T04:41:38;1.65;;;1.55;;
11171;SDS011;5642;50.830;12.082;2023-07-24T04:44:04;1.80;;;1.70;;
11171;SDS011;5642;50.830;12.082;2023-07-24T04:46:32;1.92;;;1.75;;
11171;SDS011;5642;50.830;12.082;2023-07-24T04:49:00;1.90;;;1.80;;
11171;SDS011;5642;50.830;12.082;2023-07-24T04:51:26;1.70;;;1.60;;
11171;SDS011;5642;50.830;12.082;2023-07-24T04:53:53;2.05;;;1.85;;
11171;SDS011;5642;50.830;12.082;2023-07-24T04:56:23;1.60;;;1.50;;
11171;SDS011;5642;50.830;12.082;2023-07-24T04:58:50;1.70;;;1.60;;
11171;SDS011;5642;50.830;12.082;2023-07-24T05:01:16;1.77;;;1.67;;
11171;SDS011;5642;50.830;12.082;2023-07-24T05:03:42;1.70;;;1.60;;
11171;SDS011;5642;50.830;12.082;2023-07-24T05:06:08;1.80;;;1.70;;
11171;SDS011;5642;50.830;12.082;2023-07-24T05:08:35;1.80;;;1.70;;
11171;SDS011;5642;50.830;12.082;2023-07-24T05:11:02;1.95;;;1.75;;
11171;SDS011;5642;50.830;12.082;2023-07-24T05:13:28;1.83;;;1.73;;
11171;SDS011;5642;50.830;12.082;2023-07-24T05:15:55;2.10;;;1.90;;
11171;SDS011;5642;50.830;12.082;2023-07-24T05:18:23;1.63;;;1.52;;
11171;SDS011;5642;50.830;12.082;2023-07-24T05:20:49;1.90;;;1.73;;
11171;SDS011;5642;50.830;12.082;2023-07-24T05:23:18;1.60;;;1.50;;
11171;SDS011;5642;50.830;12.082;2023-07-24T05:25:44;2.70;;;1.58;;
11171;SDS011;5642;50.830;12.082;2023-07-24T05:28:12;2.08;;;1.83;;
11171;SDS011;5642;50.830;12.082;2023-07-24T05:30:38;2.20;;;2.00;;
11171;SDS011;5642;50.830;12.082;2023-07-24T05:33:04;3.08;;;1.80;;
11171;SDS011;5642;50.830;12.082;2023-07-24T05:35:31;1.75;;;1.65;;
11171;SDS011;5642;50.830;12.082;2023-07-24T05:37:57;1.55;;;1.45;;
11171;SDS011;5642;50.830;12.082;2023-07-24T05:40:28;2.20;;;2.00;;
11171;SDS011;5642;50.830;12.082;2023-07-24T05:42:54;1.88;;;1.77;;
11171;SDS011;5642;50.830;12.082;2023-07-24T05:45:20;2.00;;;1.90;;
11171;SDS011;5642;50.830;12.082;2023-07-24T05:47:47;2.15;;;1.95;;
11171;SDS011;5642;50.830;12.082;2023-07-24T05:50:14;1.77;;;1.67;;
11171;SDS011;5642;50.830;12.082;2023-07-24T05:52:40;1.92;;;1.83;;
11171;SDS011;5642;50.830;12.082;2023-07-24T05:55:07;2.05;;;1.95;;
11171;SDS011;5642;50.830;12.082;2023-07-24T05:57:34;2.10;;;1.90;;
11171;SDS011;5642;50.830;12.082;2023-07-24T06:00:00;2.15;;;1.95;;
11171;SDS011;5642;50.830;12.082;2023-07-24T06:02:26;2.50;;;2.22;;
11171;SDS011;5642;50.830;12.082;2023-07-24T06:04:54;2.17;;;1.98;;
11171;SDS011;5642;50.830;12.082;2023-07-24T06:07:20;2.20;;;2.00;;
11171;SDS011;5642;50.830;12.082;2023-07-24T06:09:47;2.50;;;2.30;;
11171;SDS011;5642;50.830;12.082;2023-07-24T06:12:14;1.88;;;1.77;;
11171;SDS011;5642;50.830;12.082;2023-07-24T06:14:40;2.70;;;1.85;;
11171;SDS011;5642;50.830;12.082;2023-07-24T06:17:07;2.28;;;1.88;;
11171;SDS011;5642;50.830;12.082;2023-07-24T06:19:35;2.83;;;2.17;;
11171;SDS011;5642;50.830;12.082;2023-07-24T06:22:01;2.05;;;1.88;;
11171;SDS011;5642;50.830;12.082;2023-07-24T06:24:28;1.80;;;1.70;;
11171;SDS011;5642;50.830;12.082;2023-07-24T06:26:56;2.13;;;1.92;;
11171;SDS011;5642;50.830;12.082;2023-07-24T06:29:22;2.40;;;2.20;;
11171;SDS011;5642;50.830;12.082;2023-07-24T06:31:49;1.90;;;1.80;;
11171;SDS011;5642;50.830;12.082;2023-07-24T06:34:15;1.88;;;1.75;;
11171;SDS011;5642;50.830;12.082;2023-07-24T06:36:44;2.20;;;2.00;;
11171;SDS011;5642;50.830;12.082;2023-07-24T06:39:13;1.83;;;1.70;;
11171;SDS011;5642;50.830;12.082;2023-07-24T06:41:42;2.10;;;1.90;;
11171;SDS011;5642;50.830;12.082;2023-07-24T06:44:09;1.90;;;1.80;;
11171;SDS011;5642;50.830;12.082;2023-07-24T06:46:36;2.38;;;2.17;;
11171;SDS011;5642;50.830;12.082;2023-07-24T06:49:03;2.05;;;1.92;;
11171;SDS011;5642;50.830;12.082;2023-07-24T06:51:30;2.35;;;2.15;;
11171;SDS011;5642;50.830;12.082;2023-07-24T06:53:58;2.05;;;1.85;;
11171;SDS011;5642;50.830;12.082;2023-07-24T06:56:26;2.53;;;2.17;;
11171;SDS011;5642;50.830;12.082;2023-07-24T06:58:52;1.85;;;1.75;;
11171;SDS011;5642;50.830;12.082;2023-07-24T07:01:22;2.03;;;1.88;;
11171;SDS011;5642;50.830;12.082;2023-07-24T07:03:48;2.33;;;2.10;;
11171;SDS011;5642;50.830;12.082;2023-07-24T07:06:15;2.10;;;1.90;;
11171;SDS011;5642;50.830;12.082;2023-07-24T07:08:43;2.22;;;2.03;;
11171;SDS011;5642;50.830;12.082;2023-07-24T07:11:09;2.38;;;2.17;;
11171;SDS011;5642;50.830;12.082;2023-07-24T07:13:35;2.60;;;2.40;;
11171;SDS011;5642;50.830;12.082;2023-07-24T07:16:06;2.25;;;2.05;;
11171;SDS011;5642;50.830;12.082;2023-07-24T07:18:33;2.30;;;2.10;;
11171;SDS011;5642;50.830;12.082;2023-07-24T07:21:01;2.30;;;2.10;;
11171;SDS011;5642;50.830;12.082;2023-07-24T07:23:39;2.13;;;1.92;;
11171;SDS011;5642;50.830;12.082;2023-07-24T07:26:05;2.05;;;1.95;;
11171;SDS011;5642;50.830;12.082;2023-07-24T07:28:31;2.45;;;2.15;;
11171;SDS011;5642;50.830;12.082;2023-07-24T07:30:59;2.30;;;2.10;;
11171;SDS011;5642;50.830;12.082;2023-07-24T07:33:25;2.30;;;2.10;;
11171;SDS011;5642;50.830;12.082;2023-07-24T07:35:51;2.25;;;2.05;;
11171;SDS011;5642;50.830;12.082;2023-07-24T07:38:20;2.05;;;1.95;;
11171;SDS011;5642;50.830;12.082;2023-07-24T07:40:49;2.53;;;2.33;;
11171;SDS011;5642;50.830;12.082;2023-07-24T07:43:15;2.53;;;2.33;;
11171;SDS011;5642;50.830;12.082;2023-07-24T07:45:41;2.70;;;2.50;;
11171;SDS011;5642;50.830;12.082;2023-07-24T07:48:07;2.47;;;2.28;;
11171;SDS011;5642;50.830;12.082;2023-07-24T07:50:34;2.53;;;2.20;;
11171;SDS011;5642;50.830;12.082;2023-07-24T07:53:00;2.40;;;2.20;;
11171;SDS011;5642;50.830;12.082;2023-07-24T07:55:29;2.13;;;2.03;;
11171;SDS011;5642;50.830;12.082;2023-07-24T07:57:57;2.40;;;2.20;;
11171;SDS011;5642;50.830;12.082;2023-07-24T08:00:23;2.38;;;2.17;;
11171;SDS011;5642;50.830;12.082;2023-07-24T08:02:50;2.38;;;2.17;;
11171;SDS011;5642;50.830;12.082;2023-07-24T08:05:16;2.50;;;2.30;;
11171;SDS011;5642;50.830;12.082;2023-07-24T08:07:42;2.40;;;2.20;;
11171;SDS011;5642;50.830;12.082;2023-07-24T08:10:09;2.42;;;2.22;;
11171;SDS011;5642;50.830;12.082;2023-07-24T08:12:35;2.28;;;2.08;;
11171;SDS011;5642;50.830;12.082;2023-07-24T08:15:02;2.55;;;2.35;;
11171;SDS011;5642;50.830;12.082;2023-07-24T08:17:29;2.47;;;2.28;;
11171;SDS011;5642;50.830;12.082;2023-07-24T08:19:55;2.50;;;2.30;;
11171;SDS011;5642;50.830;12.082;2023-07-24T08:22:22;2.42;;;2.22;;
11171;SDS011;5642;50.830;12.082;2023-07-24T08:24:49;2.33;;;2.13;;
11171;SDS011;5642;50.830;12.082;2023-07-24T08:27:17;2.65;;;2.45;;
11171;SDS011;5642;50.830;12.082;2023-07-24T08:29:44;2.35;;;2.15;;
11171;SDS011;5642;50.830;12.082;2023-07-24T08:32:10;2.40;;;2.20;;
11171;SDS011;5642;50.830;12.082;2023-07-24T08:34:37;2.42;;;2.22;;
11171;SDS011;5642;50.830;12.082;2023-07-24T08:37:04;2.55;;;2.35;;
11171;SDS011;5642;50.830;12.082;2023-07-24T08:39:30;3.38;;;2.40;;
11171;SDS011;5642;50.830;12.082;2023-07-24T08:42:00;2.55;;;2.35;;
11171;SDS011;5642;50.830;12.082;2023-07-24T08:44:33;2.65;;;2.45;;
11171;SDS011;5642;50.830;12.082;2023-07-24T08:47:01;2.60;;;2.40;;
11171;SDS011;5642;50.830;12.082;2023-07-24T08:49:29;2.63;;;2.20;;
11171;SDS011;5642;50.830;12.082;2023-07-24T08:51:57;2.83;;;2.30;;
11171;SDS011;5642;50.830;12.082;2023-07-24T08:54:24;2.35;;;2.15;;
11171;SDS011;5642;50.830;12.082;2023-07-24T08:56:53;2.90;;;2.47;;
11171;SDS011;5642;50.830;12.082;2023-07-24T08:59:20;2.60;;;2.38;;
11171;SDS011;5642;50.830;12.082;2023-07-24T09:01:46;3.42;;;2.58;;
11171;SDS011;5642;50.830;12.082;2023-07-24T09:04:13;2.85;;;2.58;;
11171;SDS011;5642;50.830;12.082;2023-07-24T09:06:41;2.72;;;2.53;;
11171;SDS011;5642;50.830;12.082;2023-07-24T09:09:14;2.95;;;2.70;;
11171;SDS011;5642;50.830;12.082;2023-07-24T09:11:48;3.10;;;2.83;;
11171;SDS011;5642;50.830;12.082;2023-07-24T09:14:22;3.38;;;2.92;;
11171;SDS011;5642;50.830;12.082;2023-07-24T09:16:49;3.88;;;2.72;;
11171;SDS011;5642;50.830;12.082;2023-07-24T09:19:29;3.42;;;3.00;;
11171;SDS011;5642;50.830;12.082;2023-07-24T09:22:06;3.25;;;2.95;;
11171;SDS011;5642;50.830;12.082;2023-07-24T09:24:55;4.32;;;2.85;;
11171;SDS011;5642;50.830;12.082;2023-07-24T09:27:26;2.65;;;2.45;;
11171;SDS011;5642;50.830;12.082;2023-07-24T09:30:11;2.90;;;2.60;;
11171;SDS011;5642;50.830;12.082;2023-07-24T09:32:51;3.42;;;2.92;;
11171;SDS011;5642;50.830;12.082;2023-07-24T09:35:18;3.85;;;3.03;;
11171;SDS011;5642;50.830;12.082;2023-07-24T09:37:45;3.30;;;3.00;;
11171;SDS011;5642;50.830;12.082;2023-07-24T09:40:14;4.57;;;2.70;;
11171;SDS011;5642;50.830;12.082;2023-07-24T09:42:42;3.30;;;3.00;;
11171;SDS011;5642;50.830;12.082;2023-07-24T09:45:08;3.50;;;2.92;;
11171;SDS011;5642;50.830;12.082;2023-07-24T09:47:35;2.97;;;2.60;;
11171;SDS011;5642;50.830;12.082;2023-07-24T09:50:04;3.10;;;2.80;;
11171;SDS011;5642;50.830;12.082;2023-07-24T09:52:30;3.45;;;2.90;;
11171;SDS011;5642;50.830;12.082;2023-07-24T09:57:36;2.67;;;2.47;;
11171;SDS011;5642;50.830;12.082;2023-07-24T10:00:04;2.83;;;2.63;;
11171;SDS011;5642;50.830;12.082;2023-07-24T10:02:35;2.58;;;2.38;;
11171;SDS011;5642;50.830;12.082;2023-07-24T10:05:03;3.03;;;2.58;;
11171;SDS011;5642;50.830;12.082;2023-07-24T10:07:31;2.85;;;2.30;;
11171;SDS011;5642;50.830;12.082;2023-07-24T10:09:57;2.30;;;2.10;;
11171;SDS011;5642;50.830;12.082;2023-07-24T10:12:24;2.38;;;2.17;;
11171;SDS011;5642;50.830;12.082;2023-07-24T10:14:55;2.53;;;2.33;;
11171;SDS011;5642;50.830;12.082;2023-07-24T10:17:36;2.78;;;2.58;;
11171;SDS011;5642;50.830;12.082;2023-07-24T10:20:15;2.60;;;2.40;;
11171;SDS011;5642;50.830;12.082;2023-07-24T10:22:43;2.63;;;2.42;;
11171;SDS011;5642;50.830;12.082;2023-07-24T10:25:10;2.80;;;2.60;;
11171;SDS011;5642;50.830;12.082;2023-07-24T10:27:39;3.20;;;2.90;;
11171;SDS011;5642;50.830;12.082;2023-07-24T10:30:10;3.13;;;2.83;;
11171;SDS011;5642;50.830;12.082;2023-07-24T10:32:46;2.88;;;2.33;;
11171;SDS011;5642;50.830;12.082;2023-07-24T10:35:13;2.75;;;2.55;;
11171;SDS011;5642;50.830;12.082;2023-07-24T10:37:40;2.70;;;2.50;;
11171;SDS011;5642;50.830;12.082;2023-07-24T10:40:06;2.70;;;2.50;;
11171;SDS011;5642;50.830;12.082;2023-07-24T10:42:45;3.47;;;3.00;;
11171;SDS011;5642;50.830;12.082;2023-07-24T10:45:16;2.78;;;2.58;;
11171;SDS011;5642;50.830;12.082;2023-07-24T10:47:43;3.33;;;3.03;;
11171;SDS011;5642;50.830;12.082;2023-07-24T10:50:10;3.40;;;3.10;;
11171;SDS011;5642;50.830;12.082;2023-07-24T10:52:36;3.17;;;2.90;;
11171;SDS011;5642;50.830;12.082;2023-07-24T10:55:03;3.03;;;2.78;;
11171;SDS011;5642;50.830;12.082;2023-07-24T10:57:42;2.75;;;2.55;;
11171;SDS011;5642;50.830;12.082;2023-07-24T11:00:08;3.08;;;2.78;;
11171;SDS011;5642;50.830;12.082;2023-07-24T11:02:35;3.38;;;2.70;;
11171;SDS011;5642;50.830;12.082;2023-07-24T11:05:01;3.10;;;2.80;;
11171;SDS011;5642;50.830;12.082;2023-07-24T11:07:35;2.72;;;2.53;;
11171;SDS011;5642;50.830;12.082;2023-07-24T11:10:01;3.45;;;3.03;;
11171;SDS011;5642;50.830;12.082;2023-07-24T11:12:27;3.35;;;3.03;;
11171;SDS011;5642;50.830;12.082;2023-07-24T11:14:56;2.80;;;2.60;;
11171;SDS011;5642;50.830;12.082;2023-07-24T11:17:33;3.33;;;3.03;;
11171;SDS011;5642;50.830;12.082;2023-07-24T11:20:07;4.85;;;3.08;;
11171;SDS011;5642;50.830;12.082;2023-07-24T11:22:34;3.30;;;3.00;;
11171;SDS011;5642;50.830;12.082;2023-07-24T11:25:00;3.22;;;2.90;;
11171;SDS011;5642;50.830;12.082;2023-07-24T11:27:27;3.53;;;3.08;;
11171;SDS011;5642;50.830;12.082;2023-07-24T11:29:53;3.95;;;3.40;;
11171;SDS011;5642;50.830;12.082;2023-07-24T11:32:22;3.75;;;3.42;;
11171;SDS011;5642;50.830;12.082;2023-07-24T11:34:53;3.40;;;3.10;;
11171;SDS011;5642;50.830;12.082;2023-07-24T11:37:20;3.72;;;3.33;;
11171;SDS011;5642;50.830;12.082;2023-07-24T11:39:59;3.67;;;3.35;;
11171;SDS011;5642;50.830;12.082;2023-07-24T11:42:30;3.20;;;2.90;;
11171;SDS011;5642;50.830;12.082;2023-07-24T11:45:00;3.13;;;2.85;;
11171;SDS011;5642;50.830;12.082;2023-07-24T11:47:29;2.92;;;2.65;;
11171;SDS011;5642;50.830;12.082;2023-07-24T11:50:00;2.97;;;2.70;;
11171;SDS011;5642;50.830;12.082;2023-07-24T11:52:41;3.50;;;3.17;;
11171;SDS011;5642;50.830;12.082;2023-07-24T11:55:12;2.70;;;2.50;;
11171;SDS011;5642;50.830;12.082;2023-07-24T11:57:56;3.40;;;3.10;;
11171;SDS011;5642;50.830;12.082;2023-07-24T12:00:27;3.08;;;2.78;;
11171;SDS011;5642;50.830;12.082;2023-07-24T12:02:59;2.78;;;2.58;;
11171;SDS011;5642;50.830;12.082;2023-07-24T12:05:26;3.10;;;2.80;;
11171;SDS011;5642;50.830;12.082;2023-07-24T12:07:54;2.85;;;2.65;;
11171;SDS011;5642;50.830;12.082;2023-07-24T12:10:27;4.68;;;2.53;;
11171;SDS011;5642;50.830;12.082;2023-07-24T12:12:55;3.03;;;2.75;;
11171;SDS011;5642;50.830;12.082;2023-07-24T12:15:25;2.72;;;2.53;;
11171;SDS011;5642;50.830;12.082;2023-07-24T12:17:52;2.40;;;2.20;;
11171;SDS011;5642;50.830;12.082;2023-07-24T12:20:19;3.38;;;3.08;;
11171;SDS011;5642;50.830;12.082;2023-07-24T12:22:48;5.25;;;2.75;;
11171;SDS011;5642;50.830;12.082;2023-07-24T12:25:20;2.80;;;2.60;;
11171;SDS011;5642;50.830;12.082;2023-07-24T12:27:50;3.03;;;2.75;;
11171;SDS011;5642;50.830;12.082;2023-07-24T12:30:22;2.50;;;2.30;;
11171;SDS011;5642;50.830;12.082;2023-07-24T12:32:57;2.58;;;2.38;;
11171;SDS011;5642;50.830;12.082;2023-07-24T12:35:30;2.78;;;2.55;;
11171;SDS011;5642;50.830;12.082;2023-07-24T12:38:03;2.92;;;2.65;;
11171;SDS011;5642;50.830;12.082;2023-07-24T12:40:30;2.70;;;2.50;;
11171;SDS011;5642;50.830;12.082;2023-07-24T12:42:56;2.53;;;2.33;;
11171;SDS011;5642;50.830;12.082;2023-07-24T12:45:23;3.10;;;2.80;;
11171;SDS011;5642;50.830;12.082;2023-07-24T12:47:51;2.63;;;2.42;;
11171;SDS011;5642;50.830;12.082;2023-07-24T12:50:21;2.63;;;2.42;;
11171;SDS011;5642;50.830;12.082;2023-07-24T12:52:49;2.78;;;2.47;;
11171;SDS011;5642;50.830;12.082;2023-07-24T12:55:15;2.35;;;2.15;;
11171;SDS011;5642;50.830;12.082;2023-07-24T12:57:41;2.53;;;2.33;;
11171;SDS011;5642;50.830;12.082;2023-07-24T13:00:14;3.15;;;2.35;;
11171;SDS011;5642;50.830;12.082;2023-07-24T13:03:07;2.50;;;2.30;;
11171;SDS011;5642;50.830;12.082;2023-07-24T13:05:36;3.03;;;2.67;;
11171;SDS011;5642;50.830;12.082;2023-07-24T13:08:03;2.58;;;2.38;;
11171;SDS011;5642;50.830;12.082;2023-07-24T13:10:29;3.30;;;2.72;;
11171;SDS011;5642;50.830;12.082;2023-07-24T13:12:59;2.50;;;2.30;;
11171;SDS011;5642;50.830;12.082;2023-07-24T13:15:26;2.28;;;2.08;;
11171;SDS011;5642;50.830;12.082;2023-07-24T13:17:55;2.47;;;2.28;;
11171;SDS011;5642;50.830;12.082;2023-07-24T13:20:22;2.50;;;2.30;;
11171;SDS011;5642;50.830;12.082;2023-07-24T13:22:48;3.50;;;2.80;;
11171;SDS011;5642;50.830;12.082;2023-07-24T13:25:20;2.85;;;2.63;;
11171;SDS011;5642;50.830;12.082;2023-07-24T13:27:48;2.38;;;2.17;;
11171;SDS011;5642;50.830;12.082;2023-07-24T13:30:14;2.45;;;2.25;;
11171;SDS011;5642;50.830;12.082;2023-07-24T13:32:40;2.88;;;2.63;;
11171;SDS011;5642;50.830;12.082;2023-07-24T13:35:07;2.70;;;2.50;;
11171;SDS011;5642;50.830;12.082;2023-07-24T13:37:36;2.67;;;2.47;;
11171;SDS011;5642;50.830;12.082;2023-07-24T13:40:09;3.25;;;2.65;;
11171;SDS011;5642;50.830;12.082;2023-07-24T13:42:35;2.58;;;2.38;;
11171;SDS011;5642;50.830;12.082;2023-07-24T13:45:01;3.08;;;2.80;;
11171;SDS011;5642;50.830;12.082;2023-07-24T13:47:28;2.63;;;2.42;;
11171;SDS011;5642;50.830;12.082;2023-07-24T13:49:54;2.78;;;2.58;;
11171;SDS011;5642;50.830;12.082;2023-07-24T13:52:25;2.60;;;2.40;;
11171;SDS011;5642;50.830;12.082;2023-07-24T13:54:53;3.13;;;2.83;;
11171;SDS011;5642;50.830;12.082;2023-07-24T13:57:20;3.20;;;2.90;;
11171;SDS011;5642;50.830;12.082;2023-07-24T13:59:49;4.38;;;2.88;;
11171;SDS011;5642;50.830;12.082;2023-07-24T14:02:16;3.38;;;3.03;;
11171;SDS011;5642;50.830;12.082;2023-07-24T14:04:44;3.30;;;3.00;;
11171;SDS011;5642;50.830;12.082;2023-07-24T14:07:10;3.10;;;2.80;;
11171;SDS011;5642;50.830;12.082;2023-07-24T14:09:42;3.17;;;2.88;;
11171;SDS011;5642;50.830;12.082;2023-07-24T14:12:09;3.28;;;2.97;;
11171;SDS011;5642;50.830;12.082;2023-07-24T14:14:36;3.20;;;2.90;;
11171;SDS011;5642;50.830;12.082;2023-07-24T14:17:02;3.28;;;2.80;;
11171;SDS011;5642;50.830;12.082;2023-07-24T14:19:28;3.10;;;2.80;;
11171;SDS011;5642;50.830;12.082;2023-07-24T14:21:54;3.35;;;3.05;;
11171;SDS011;5642;50.830;12.082;2023-07-24T14:24:20;3.17;;;2.88;;
11171;SDS011;5642;50.830;12.082;2023-07-24T14:26:46;2.80;;;2.60;;
11171;SDS011;5642;50.830;12.082;2023-07-24T14:29:14;2.83;;;2.63;;
11171;SDS011;5642;50.830;12.082;2023-07-24T14:31:51;3.33;;;2.90;;
11171;SDS011;5642;50.830;12.082;2023-07-24T14:34:17;3.40;;;3.08;;
11171;SDS011;5642;50.830;12.082;2023-07-24T14:36:47;3.25;;;2.95;;
11171;SDS011;5642;50.830;12.082;2023-07-24T14:39:14;3.03;;;2.67;;
11171;SDS011;5642;50.830;12.082;2023-07-24T14:41:40;3.15;;;2.85;;
11171;SDS011;5642;50.830;12.082;2023-07-24T14:44:06;3.17;;;2.88;;
11171;SDS011;5642;50.830;12.082;2023-07-24T14:46:44;3.70;;;2.95;;
11171;SDS011;5642;50.830;12.082;2023-07-24T14:49:21;3.10;;;2.80;;
11171;SDS011;5642;50.830;12.082;2023-07-24T14:51:50;3.15;;;2.80;;
11171;SDS011;5642;50.830;12.082;2023-07-24T14:54:17;2.80;;;2.60;;
11171;SDS011;5642;50.830;12.082;2023-07-24T14:56:48;2.97;;;2.75;;
11171;SDS011;5642;50.830;12.082;2023-07-24T14:59:15;2.78;;;2.58;;
11171;SDS011;5642;50.830;12.082;2023-07-24T15:01:44;3.00;;;2.70;;
11171;SDS011;5642;50.830;12.082;2023-07-24T15:04:12;3.28;;;2.97;;